FIN7YB EFHK-ESSA
Flight info
| Callsign | FIN7YB |
|---|---|
| Flight time | N/A |
| Altitude | 36000 |
| Route | ADIVO Y365 POGOK DCT RUNGA N872 XILAN |
| Aircraft | A320/M-SDE3FGHIRWY/LB1 |
Departure
| Time | 2026-05-07 19:03 |
|---|---|
| Airport | Helsinki Vantaa Airport (EFHK) |
Arrival
| Time | N/A |
|---|---|
| Airport | Stockholm-Arlanda Airport (ESSA) |
| Time | Latitude | Longitude | Altitude | Speed | Heading |
|---|---|---|---|---|---|
| 2026-05-07 18:31 | 60.31633 | 24.97247 | 162 ft | 0 kts | 244° |
| 2026-05-07 18:45 | 60.31642 | 24.97280 | 161 ft | 0 kts | 236° |
| 2026-05-07 18:45 | 60.31645 | 24.97291 | 161 ft | 0 kts | 232° |
| 2026-05-07 18:46 | 60.31645 | 24.97289 | 161 ft | 0 kts | 232° |
| 2026-05-07 18:46 | 60.31644 | 24.97286 | 161 ft | 0 kts | 232° |
| 2026-05-07 18:47 | 60.31633 | 24.97247 | 161 ft | 0 kts | 244° |
| 2026-05-07 18:50 | 60.31638 | 24.97267 | 161 ft | 4 kts | 247° |
| 2026-05-07 18:50 | 60.31646 | 24.97318 | 161 ft | 4 kts | 265° |
| 2026-05-07 18:50 | 60.31644 | 24.97369 | 161 ft | 4 kts | 302° |
| 2026-05-07 18:50 | 60.31634 | 24.97392 | 161 ft | 0 kts | 333° |
| 2026-05-07 18:55 | 60.31635 | 24.97391 | 161 ft | 2 kts | 333° |
| 2026-05-07 18:55 | 60.31663 | 24.97362 | 161 ft | 0 kts | 333° |
| 2026-05-07 18:56 | 60.31696 | 24.97328 | 161 ft | 11 kts | 333° |
| 2026-05-07 18:56 | 60.31763 | 24.97260 | 161 ft | 10 kts | 333° |
| 2026-05-07 18:56 | 60.31821 | 24.97200 | 161 ft | 9 kts | 333° |
| 2026-05-07 18:56 | 60.31887 | 24.97131 | 161 ft | 17 kts | 332° |
| 2026-05-07 18:57 | 60.32014 | 24.97001 | 161 ft | 22 kts | 333° |
| 2026-05-07 18:57 | 60.32169 | 24.96825 | 161 ft | 27 kts | 330° |
| 2026-05-07 18:57 | 60.32294 | 24.96680 | 161 ft | 14 kts | 330° |
| 2026-05-07 18:57 | 60.32343 | 24.96623 | 161 ft | 3 kts | 329° |
| 2026-05-07 18:58 | 60.32343 | 24.96622 | 162 ft | 0 kts | 329° |
| 2026-05-07 18:58 | 60.32352 | 24.96612 | 162 ft | 6 kts | 329° |
| 2026-05-07 18:59 | 60.32437 | 24.96511 | 161 ft | 20 kts | 330° |
| 2026-05-07 18:59 | 60.32565 | 24.96361 | 161 ft | 22 kts | 329° |
| 2026-05-07 18:59 | 60.32716 | 24.96183 | 161 ft | 28 kts | 330° |
| 2026-05-07 18:59 | 60.32890 | 24.95982 | 161 ft | 28 kts | 330° |
| 2026-05-07 19:00 | 60.33028 | 24.95825 | 161 ft | 21 kts | 330° |
| 2026-05-07 19:00 | 60.33143 | 24.95638 | 161 ft | 22 kts | 317° |
| 2026-05-07 19:00 | 60.33205 | 24.95405 | 161 ft | 20 kts | 264° |
| 2026-05-07 19:00 | 60.33142 | 24.95254 | 161 ft | 13 kts | 244° |
| 2026-05-07 19:01 | 60.33107 | 24.95061 | 161 ft | 16 kts | 270° |
| 2026-05-07 19:01 | 60.33113 | 24.94821 | 161 ft | 18 kts | 272° |
| 2026-05-07 19:01 | 60.33120 | 24.94565 | 166 ft | 17 kts | 274° |
| 2026-05-07 19:01 | 60.33101 | 24.94366 | 173 ft | 13 kts | 236° |
| 2026-05-07 19:02 | 60.33067 | 24.94286 | 175 ft | 1 kts | 227° |
| 2026-05-07 19:02 | 60.33067 | 24.94285 | 175 ft | 1 kts | 226° |
| 2026-05-07 19:02 | 60.32935 | 24.94001 | 177 ft | 66 kts | 227° |
| 2026-05-07 19:02 | 60.32461 | 24.92955 | 162 ft | 133 kts | 227° |
| 2026-05-07 19:03 | 60.31735 | 24.91367 | 378 ft | 163 kts | 227° |
| 2026-05-07 19:03 | 60.30964 | 24.89654 | 1050 ft | 168 kts | 229° |
| 2026-05-07 19:03 | 60.30298 | 24.87678 | 1675 ft | 178 kts | 252° |
| 2026-05-07 19:03 | 60.30161 | 24.85089 | 2048 ft | 197 kts | 281° |
| 2026-05-07 19:04 | 60.30652 | 24.82327 | 2411 ft | 223 kts | 296° |
| 2026-05-07 19:04 | 60.31335 | 24.79349 | 2992 ft | 243 kts | 296° |
| 2026-05-07 19:04 | 60.31775 | 24.76007 | 3870 ft | 254 kts | 274° |
| 2026-05-07 19:04 | 60.31699 | 24.72391 | 4859 ft | 259 kts | 269° |
| 2026-05-07 19:05 | 60.31604 | 24.68728 | 5832 ft | 263 kts | 269° |
| 2026-05-07 19:05 | 60.31515 | 24.65066 | 6777 ft | 267 kts | 269° |
| 2026-05-07 19:05 | 60.31427 | 24.61269 | 7750 ft | 268 kts | 269° |
| 2026-05-07 19:05 | 60.31341 | 24.57500 | 8752 ft | 269 kts | 268° |
| 2026-05-07 19:06 | 60.31252 | 24.53720 | 9765 ft | 270 kts | 268° |
| 2026-05-07 19:06 | 60.31196 | 24.51395 | 10309 ft | 273 kts | 268° |